Terminal Aerodrome Forecast
Issued by NWS

Home | Current Version | Previous Version | Text Only | Print | Product List | Glossary On
Versions: 1 2 3 4 5 6 7 8 9 10 11 12 13
256
FTUS44 KEPZ 261124
TAFTCS
TAF
KTCS 261124Z 2612/2712 19006KT P6SM SCT100 BKN250
     FM262000 20008KT P6SM VCTS SCT070CB BKN120
      TEMPO 2622/2702 VRB25G35KT 2SM TSRA BKN040CB
     FM270600 21006KT P6SM SCT100 BKN250=

USA.gov is the U.S. government's official web portal to all federal, state and local government web resources and services.